createdAt,value
2022-12-09T00:04:16.036Z,52.8
2022-12-09T00:09:15.946Z,52.5
2022-12-09T00:14:18.882Z,52.7
2022-12-09T00:19:20.905Z,52.6
2022-12-09T00:24:23.437Z,52.8
2022-12-09T00:29:22.838Z,52.7
2022-12-09T00:34:23.077Z,52.6
2022-12-09T00:39:23.248Z,52.6
2022-12-09T00:44:23.157Z,52.5
2022-12-09T00:49:23.284Z,52.7
2022-12-09T00:54:24.061Z,52.7
2022-12-09T00:59:24.218Z,52.8
2022-12-09T01:04:24.647Z,52.8
2022-12-09T01:09:24.406Z,52.7
2022-12-09T01:14:24.521Z,52.9
2022-12-09T01:19:24.657Z,52.6
2022-12-09T01:24:24.841Z,52.8
2022-12-09T01:29:24.636Z,52.6
2022-12-09T01:34:24.847Z,52.9
2022-12-09T01:39:24.835Z,52.6
2022-12-09T01:44:27.899Z,52.8
2022-12-09T01:49:27.591Z,52.8
2022-12-09T01:54:27.302Z,52.7
2022-12-09T01:59:29.374Z,52.8
2022-12-09T02:04:29.253Z,52.8
2022-12-09T02:09:29.216Z,52.8
2022-12-09T02:14:29.547Z,52.9
2022-12-09T02:19:29.497Z,52.8
2022-12-09T02:24:29.287Z,52.8
2022-12-09T02:29:29.223Z,52.8
2022-12-09T02:34:29.573Z,52.8
2022-12-09T02:39:32.386Z,52.8
2022-12-09T02:44:31.970Z,52.8
2022-12-09T02:49:32.046Z,52.7
2022-12-09T02:54:32.352Z,52.7
2022-12-09T02:59:32.320Z,52.9
2022-12-09T03:04:32.924Z,52.8
2022-12-09T03:09:33.062Z,52.9
2022-12-09T03:14:33.034Z,52.7
2022-12-09T03:19:33.130Z,52.8
2022-12-09T03:24:33.278Z,52.9
2022-12-09T03:29:35.977Z,52.9
2022-12-09T03:34:35.503Z,53
2022-12-09T03:39:35.656Z,52.9
2022-12-09T03:44:35.642Z,53
2022-12-09T03:49:35.899Z,52.7
2022-12-09T03:54:36.113Z,52.9
2022-12-09T03:59:36.082Z,52.8
2022-12-09T04:04:36.702Z,52.7
2022-12-09T04:09:36.588Z,52.8
2022-12-09T04:14:36.445Z,53
2022-12-09T04:19:36.458Z,52.7
2022-12-09T04:24:36.896Z,52.8
2022-12-09T04:29:39.811Z,52.8
2022-12-09T04:34:39.451Z,52.9
2022-12-09T04:39:41.263Z,52.6
2022-12-09T04:44:41.212Z,52.7
2022-12-09T04:49:41.473Z,52.8
2022-12-09T04:54:41.718Z,52.7
2022-12-09T04:59:41.983Z,52.9
2022-12-09T05:04:42.115Z,52.8
2022-12-09T05:09:42.402Z,52.8
2022-12-09T05:14:42.209Z,52.6
2022-12-09T05:19:42.606Z,52.8
2022-12-09T05:24:42.809Z,52.7
2022-12-09T05:29:43.129Z,52.7
2022-12-09T05:34:43.575Z,52.9
2022-12-09T05:39:43.656Z,53
2022-12-09T05:44:46.565Z,53.1
2022-12-09T05:49:46.337Z,53
2022-12-09T05:54:46.843Z,53
2022-12-09T05:59:47.035Z,53
2022-12-09T06:04:46.398Z,52.9
2022-12-09T06:09:46.572Z,53
2022-12-09T06:14:46.589Z,53.1
2022-12-09T06:19:46.823Z,53
2022-12-09T06:24:46.868Z,52.9
2022-12-09T06:29:46.766Z,52.9
2022-12-09T06:34:47.156Z,52.9
2022-12-09T06:39:47.212Z,52.7
2022-12-09T06:44:47.321Z,52.6
2022-12-09T06:49:47.664Z,52.6
2022-12-09T06:54:47.569Z,52.6
2022-12-09T06:59:47.641Z,52.7
2022-12-09T07:04:50.759Z,52.7
2022-12-09T07:09:50.480Z,52.7
2022-12-09T07:14:53.445Z,52.7
2022-12-09T07:19:52.749Z,52.7
2022-12-09T07:24:52.963Z,52.6
2022-12-09T07:29:53.010Z,52.6
2022-12-09T07:34:53.271Z,52.5
2022-12-09T07:39:53.311Z,52.6
2022-12-09T07:44:53.441Z,52.5
2022-12-09T07:49:53.514Z,52.5
2022-12-09T07:54:54.042Z,52.5
2022-12-09T07:59:54.087Z,52.4
2022-12-09T08:04:54.357Z,52.4
2022-12-09T08:09:54.278Z,52.3
2022-12-09T08:14:54.179Z,52.3
2022-12-09T08:19:54.263Z,52.2
2022-12-09T08:24:54.540Z,52.2
2022-12-09T08:29:54.469Z,52.2
2022-12-09T08:34:54.832Z,52.1
2022-12-09T08:39:54.681Z,52.1
2022-12-09T08:45:00.254Z,52.1
2022-12-09T08:49:54.907Z,52.1
2022-12-09T08:54:54.897Z,52
2022-12-09T08:59:57.844Z,51.8
2022-12-09T09:04:57.566Z,51.7
2022-12-09T09:09:57.994Z,51.8
2022-12-09T09:14:57.929Z,51.7
2022-12-09T09:19:58.496Z,51.6
2022-12-09T09:25:01.003Z,51.6
2022-12-09T09:30:00.751Z,51.7
2022-12-09T09:35:01.344Z,51.8
2022-12-09T09:40:01.139Z,51.7
2022-12-09T09:45:01.062Z,51.7
2022-12-09T09:50:01.513Z,51.8
2022-12-09T09:55:01.458Z,51.7
2022-12-09T10:00:09.138Z,51.7
2022-12-09T10:05:04.442Z,51.3
2022-12-09T10:10:04.500Z,51.6
2022-12-09T10:15:07.254Z,52.2
2022-12-09T10:20:08.080Z,52.6
2022-12-09T10:25:07.202Z,53.1
2022-12-09T10:30:07.930Z,53.7
2022-12-09T10:35:07.916Z,53.4
2022-12-09T10:40:11.069Z,53.3
2022-12-09T10:45:12.977Z,53.4
2022-12-09T10:50:12.857Z,53.4
2022-12-09T10:55:12.570Z,53.7
2022-12-09T11:00:14.703Z,54.2
2022-12-09T11:05:17.495Z,54.5
2022-12-09T11:10:17.900Z,53.7
2022-12-09T11:15:17.256Z,53.5
2022-12-09T11:20:17.716Z,53.6
2022-12-09T11:25:17.676Z,53.7
2022-12-09T11:30:18.478Z,54.1
2022-12-09T11:35:18.016Z,54.2
2022-12-09T11:40:18.208Z,54.2
2022-12-09T11:45:18.199Z,54.5
2022-12-09T11:50:18.238Z,54.4
2022-12-09T11:55:18.367Z,54.5
2022-12-09T12:00:18.539Z,54.4
2022-12-09T12:05:21.603Z,54.5
2022-12-09T12:10:21.733Z,54.8
2022-12-09T12:15:21.363Z,54.4
2022-12-09T12:20:21.698Z,54.1
2022-12-09T12:25:22.015Z,53.8
2022-12-09T12:30:24.705Z,53.7
2022-12-09T12:35:23.938Z,53.7
2022-12-09T12:40:26.904Z,53.6
2022-12-09T12:45:24.408Z,53.5
2022-12-09T12:50:24.649Z,53.5
2022-12-09T12:55:24.652Z,53.3
2022-12-09T13:00:24.771Z,53.3
2022-12-09T13:05:25.068Z,53.1
2022-12-09T13:10:25.156Z,53
2022-12-09T13:15:25.241Z,53.1
2022-12-09T13:20:25.401Z,53
2022-12-09T13:25:25.476Z,52.9
2022-12-09T13:30:25.712Z,53
2022-12-09T13:35:25.883Z,52.8
2022-12-09T13:40:26.164Z,52.8
2022-12-09T13:45:26.286Z,52.7
2022-12-09T13:50:30.762Z,52.7
2022-12-09T13:55:32.627Z,52.5
2022-12-09T14:00:32.454Z,52.7
2022-12-09T14:05:35.354Z,52.8
2022-12-09T14:10:34.809Z,52.5
2022-12-09T14:15:34.671Z,52.5
2022-12-09T14:20:34.762Z,52.7
2022-12-09T14:25:35.034Z,52.6
2022-12-09T14:30:35.115Z,52.6
2022-12-09T14:35:35.333Z,52.5
2022-12-09T14:40:35.502Z,52.5
2022-12-09T14:45:35.857Z,52.5
2022-12-09T14:50:35.965Z,52.5
2022-12-09T14:55:36.342Z,52.4
2022-12-09T15:00:36.636Z,52.5
2022-12-09T15:05:39.631Z,52.6
2022-12-09T15:10:39.067Z,52.4
2022-12-09T15:15:39.046Z,52.5
2022-12-09T15:20:39.061Z,52.4
2022-12-09T15:25:39.230Z,52.3
2022-12-09T15:30:39.546Z,52.5
2022-12-09T15:35:39.620Z,52.4
2022-12-09T15:40:42.702Z,52.3
2022-12-09T15:45:42.437Z,52.5
2022-12-09T15:50:45.296Z,52.5
2022-12-09T15:55:45.090Z,52.5
2022-12-09T16:00:45.357Z,52.4
2022-12-09T16:05:45.688Z,52.3
2022-12-09T16:10:48.576Z,52.2
2022-12-09T16:15:48.403Z,52.2
2022-12-09T16:20:48.551Z,52.3
2022-12-09T16:25:51.664Z,52.4
2022-12-09T16:30:53.899Z,52.2
2022-12-09T16:35:56.536Z,52.3
2022-12-09T16:40:57.972Z,52.2
2022-12-09T16:45:57.904Z,52.3
2022-12-09T16:51:01.026Z,52.1
2022-12-09T16:56:00.729Z,52.2
2022-12-09T17:01:00.991Z,52.4
2022-12-09T17:06:01.219Z,52.3
2022-12-09T17:11:03.974Z,52.4
2022-12-09T17:16:06.741Z,52.5
2022-12-09T17:21:06.319Z,52.5
2022-12-09T17:26:06.380Z,52.5
2022-12-09T17:31:06.437Z,52.5
2022-12-09T17:36:06.739Z,52.6
2022-12-09T17:41:07.148Z,52.7
2022-12-09T17:46:07.460Z,52.5
2022-12-09T17:51:07.451Z,52.6
2022-12-09T17:56:07.809Z,52.6
2022-12-09T18:01:07.677Z,52.9
2022-12-09T18:06:07.178Z,53.3
2022-12-09T18:11:09.586Z,53.9
2022-12-09T18:16:11.797Z,54.4
2022-12-09T18:21:16.146Z,54.6
2022-12-09T18:26:13.810Z,54.8
2022-12-09T18:31:14.094Z,55
2022-12-09T18:36:14.056Z,55.2
2022-12-09T18:41:14.245Z,55.4
2022-12-09T18:46:14.578Z,55.5
2022-12-09T18:51:14.577Z,55.6
2022-12-09T18:56:14.906Z,55.9
2022-12-09T19:01:15.043Z,55.8
2022-12-09T19:06:15.244Z,56.1
2022-12-09T19:11:15.424Z,56.1
2022-12-09T19:16:18.253Z,56.3
2022-12-09T19:21:20.799Z,56.2
2022-12-09T19:26:20.465Z,56.5
2022-12-09T19:31:20.497Z,56.3
2022-12-09T19:36:20.831Z,56.5
2022-12-09T19:41:20.786Z,56.4
2022-12-09T19:46:20.158Z,56.6
2022-12-09T19:51:20.300Z,56.7
2022-12-09T19:56:20.392Z,56.6
2022-12-09T20:01:20.735Z,56.6
2022-12-09T20:06:22.734Z,56.7
2022-12-09T20:11:22.075Z,56.5
2022-12-09T20:16:21.916Z,56.6
2022-12-09T20:21:24.521Z,56.6
2022-12-09T20:26:24.248Z,56.7
2022-12-09T20:31:27.126Z,56.5
2022-12-09T20:36:27.033Z,56.5
2022-12-09T20:41:27.269Z,56.7
2022-12-09T20:46:30.300Z,56.4
2022-12-09T20:51:32.685Z,56.5
2022-12-09T20:56:32.346Z,56.4
2022-12-09T21:01:32.690Z,56.1
2022-12-09T21:06:32.837Z,56.3
2022-12-09T21:11:32.964Z,56.5
2022-12-09T21:16:36.035Z,56.3
2022-12-09T21:21:35.797Z,56.4
2022-12-09T21:26:35.955Z,56.5
2022-12-09T21:31:36.287Z,56.6
2022-12-09T21:36:36.749Z,56.6
2022-12-09T21:41:37.203Z,56.5
2022-12-09T21:46:37.402Z,56.5
2022-12-09T21:51:37.600Z,56.6
2022-12-09T21:56:36.800Z,56.7
2022-12-09T22:01:40.108Z,56.7
2022-12-09T22:06:42.621Z,56.5
2022-12-09T22:11:42.368Z,56.6
2022-12-09T22:16:42.331Z,56.7
2022-12-09T22:21:42.590Z,56.6
2022-12-09T22:26:43.071Z,56.7
2022-12-09T22:31:43.100Z,56.6
2022-12-09T22:36:43.200Z,56.5
2022-12-09T22:41:43.392Z,56.5
2022-12-09T22:46:43.667Z,56.5
2022-12-09T22:51:43.728Z,56.6
2022-12-09T22:56:43.895Z,56.5
2022-12-09T23:01:43.997Z,56.6
2022-12-09T23:06:44.200Z,56.6
2022-12-09T23:11:44.373Z,56.7
2022-12-09T23:16:44.490Z,56.6
2022-12-09T23:21:44.803Z,56.6
2022-12-09T23:26:44.979Z,56.6
2022-12-09T23:31:45.434Z,56.7
2022-12-09T23:36:45.948Z,56.6
2022-12-09T23:41:45.958Z,56.6
2022-12-09T23:46:46.305Z,56.6
2022-12-09T23:51:46.317Z,56.6
2022-12-09T23:56:49.351Z,56.8
